Monte Vista, CO

2:39 PM MDT on May 29, 2015 (GMT -0600)
KCOMONTE4 | | Change Station
CLOSE
Current Station
Personal Weather Station
Location: Monte Vista, CO
Elevation: 7674 ft
Nearby Weather Stations

Elev 7674 ft 37.58 °N, 106.16 °W | Updated 24 seconds ago

Partly Cloudy
Partly Cloudy
67.1 °F
Feels Like 67.1 °F
N
0.0
Wind Variable Wind from NNW
Gusts 3.0 mph

Today
High -- | Low -- °F
--% Chance of Precip.
Yesterday
High -- | Low -- °F
Precip. -- in
5:46 AM 8:18 PM
Waxing Gibbous, 86% visible
Pressure 30.05 in
Visibility 10.0 miles
Clouds Mostly Cloudy 7500 ft
Dew Point 31 °F
Humidity 25%
Rainfall 0.00 in
Snow Depth Not available.
UV 7 out of 12
Pollen 7.70 out of 12
Air Quality Not available.
Flu Activity Sporadic
METAR KALS 291952Z AUTO 00000KT 10SM BKN075 17/M03 A3024 RMK AO2 SLP175 T01721028

More Conditions Fewer Conditions

Pressure 30.05 in
Visibility 10.0 miles
Clouds Mostly Cloudy 7500 ft
Dew Point 31 °F
Humidity 25%
Rainfall 0.00 in
Snow Depth Not available.
UV 7 out of 12
Pollen 7.70 out of 12
Air Quality Not available.
Flu Activity Sporadic
METAR KALS 291952Z AUTO 00000KT 10SM BKN075 17/M03 A3024 RMK AO2 SLP175 T01721028

More Conditions Fewer Conditions

10-Day Weather Forecast

Almanac

Astronomy

May. 29, 2015 Rise Set
Actual Time
Civil Twilight
Nautical Twilight
Astronomical Twilight
Moon
Length of Visible Light
Length of Day
Tomorrow will be .
, % of the Moon is Illuminated

Today's Extremes

State Highs State Lows

Community

WunderPhotos

Upload Photos

1,825,347 photos uploaded!

WunderBlogs® & News

Nearby

Air Quality

  Air Quality AQ Index Pollutant
Not available.

Snow Depth

Station Depth Elevation

Earthquake Activity

City Distance Mag. Time & Date
Minimum magnitude displayed is 2.5.

Coastal Water Temperatures

Place Temperature

Stations

Nearby Weather Stations

Station Location Temp. Windchill Dew Point Humidity Wind Precip. Elev Updated Type